Ana Sayfa
METAR-TAF:

METAR-TAF

Havaalanları :

Vientiane, Laos

Enlem: 17-57N, Boylam: 102-34E, yükseklik: 171 m

Güncel hava durumu gözlemi

Rapor saat 07:00 UTC de 24 dakika önce yapıldı.
Rüzgar güneydoğudan 8 kt
Sıcaklık 32°C
Nem 63%
Basınç 1008 hPa
Görüş mesafesi 10 km veya daha fazla
1600 ft yükseklikte parçalı bulutlu
4000 ft yükseklikte parçalı bulutlu

METAR: VLVT 230700Z 14008KT 9999 SCT016 SCT040 32/24 Q1008 NOSIG

Saat: 14:24 (07:24 UTC)

Tahmin

Rapor saat 05:00 UTC de 2 saat ve 24 dakika önce yapıldı.
Ayın 23'si saat 06 UTC'den ayın 24'si saat 06 UTC'ye kadar geçerli Tahmin
Rüzgar güneydan 4 kt
Görüş mesafesi 10 km veya daha fazla
2000 ft yükseklikte parçalı bulutlu
5000 ft yükseklikte parçalı bulutlu
Geçici
ayın 23'si saat 14 UTC'den ayın 23'si saat 20 UTC'ye kadar
Görüş mesafesi: 4000 m
2000 ft yükseklikte az bulutlu
4000 ft yükseklikte parçalı bulutlu
Pus

TAF: VLVT 230500Z 2306/2406 18004KT 9999 SCT020 SCT050 TEMPO 2314/2320 4000 BR FEW020 SCT040

4.000'den fazla havaalanı için hava durumu gözlemleri ve tahminleri (METAR ve TAF raporları).

Kullanılabilir istasyonlar harita üzerinde sarı ve kırmızı noktalarla gösterilir.

İstasyonun adını görmek için fareyi noktanın üzerinde gezdirin.

Sonrasında hava gözlem ve tahminlerini görmek için tıklayın.

Haritayı değiştirmek için: yaklaştırmak için siyah artı işaretli yeşil düğmeye ve uzaklaştırmak için de eksi işaretli düğmeye hızla tıklayın; bitişik haritalar için yeşil okları kullanın.


METAR-TAF: